createdAt,value
2023-03-29T00:02:43.258Z,0.80
2023-03-29T00:12:50.457Z,1.40
2023-03-29T00:22:59.537Z,1.65
2023-03-29T00:45:08.051Z,1.20
2023-03-29T00:55:19.990Z,1.10
2023-03-29T01:16:13.525Z,1.00
2023-03-29T01:26:31.106Z,1.10
2023-03-29T01:36:44.347Z,1.30
2023-03-29T01:46:56.464Z,1.23
2023-03-29T01:57:22.550Z,1.00
2023-03-29T02:08:15.216Z,1.20
2023-03-29T02:18:24.608Z,1.23
2023-03-29T02:28:34.161Z,1.20
2023-03-29T02:38:43.258Z,1.50
2023-03-29T02:48:52.491Z,1.20
2023-03-29T02:59:14.401Z,1.13
2023-03-29T03:09:27.135Z,1.17
2023-03-29T03:19:36.251Z,0.88
2023-03-29T03:29:43.968Z,1.20
2023-03-29T03:40:30.738Z,1.40
2023-03-29T03:50:37.734Z,1.45
2023-03-29T04:00:47.234Z,1.90
2023-03-29T04:11:13.233Z,1.77
2023-03-29T04:21:23.676Z,1.70
2023-03-29T04:31:30.698Z,1.63
2023-03-29T04:41:59.349Z,1.42
2023-03-29T04:52:11.946Z,4.45
2023-03-29T05:02:28.189Z,13.55
2023-03-29T05:12:45.109Z,17.30
2023-03-29T05:22:54.299Z,15.35
2023-03-29T05:34:30.680Z,13.38
2023-03-29T05:45:09.139Z,14.48
2023-03-29T05:55:52.692Z,11.88
2023-03-29T06:17:01.390Z,8.38
2023-03-29T06:27:10.470Z,6.85
2023-03-29T06:37:17.842Z,5.43
2023-03-29T06:47:31.784Z,4.40
2023-03-29T06:57:38.882Z,3.90
2023-03-29T07:08:01.208Z,3.33
2023-03-29T07:18:19.353Z,2.65
2023-03-29T07:28:28.327Z,2.42
2023-03-29T07:38:35.686Z,2.38
2023-03-29T07:48:49.991Z,2.00
2023-03-29T07:58:57.152Z,1.83
2023-03-29T08:09:09.704Z,1.63
2023-03-29T08:19:17.615Z,1.70
2023-03-29T08:29:44.580Z,1.23
2023-03-29T08:39:51.656Z,1.13
2023-03-29T08:50:21.655Z,1.23
2023-03-29T09:00:41.496Z,1.10
2023-03-29T09:11:15.085Z,1.00
2023-03-29T09:21:31.592Z,1.08
2023-03-29T09:31:45.692Z,0.80
2023-03-29T09:41:58.253Z,0.90
2023-03-29T09:52:16.781Z,0.90
2023-03-29T10:02:34.406Z,0.80
2023-03-29T10:12:44.288Z,0.60
2023-03-29T10:22:57.269Z,0.90
2023-03-29T10:33:17.675Z,0.68
2023-03-29T10:43:33.153Z,0.63
2023-03-29T10:53:42.723Z,0.70
2023-03-29T11:04:09.032Z,0.60
2023-03-29T11:14:32.056Z,0.70
2023-03-29T11:25:07.534Z,0.57
2023-03-29T11:35:32.783Z,0.70
2023-03-29T11:45:44.455Z,0.50
2023-03-29T11:55:57.989Z,0.60
2023-03-29T12:06:10.888Z,0.60
2023-03-29T12:16:25.761Z,0.60
2023-03-29T12:27:08.383Z,0.60
2023-03-29T12:37:28.512Z,0.50
2023-03-29T12:48:33.403Z,0.60
2023-03-29T13:21:09.436Z,0.52
2023-03-29T13:32:39.976Z,0.50
2023-03-29T13:43:01.281Z,0.60
2023-03-29T13:53:17.617Z,0.60
2023-03-29T14:15:26.736Z,0.50
2023-03-29T15:25:22.457Z,1.20
2023-03-29T15:35:32.701Z,1.40
2023-03-29T15:46:05.047Z,1.13
2023-03-29T15:56:16.896Z,1.10
2023-03-29T16:06:56.036Z,1.13
2023-03-29T16:17:12.019Z,3.10
2023-03-29T16:27:24.727Z,2.78
2023-03-29T16:37:32.984Z,2.60
2023-03-29T16:47:45.179Z,1.90
2023-03-29T16:57:52.602Z,1.67
2023-03-29T17:08:01.046Z,1.67
2023-03-29T17:18:16.660Z,1.60
2023-03-29T17:28:25.765Z,1.35
2023-03-29T17:39:23.184Z,1.40
2023-03-29T17:49:31.696Z,1.30
2023-03-29T17:59:39.440Z,1.52
2023-03-29T18:21:59.826Z,1.40
2023-03-29T18:32:22.297Z,1.55
2023-03-29T18:43:03.979Z,1.60
2023-03-29T18:53:11.320Z,1.50
2023-03-29T19:04:23.491Z,1.40
2023-03-29T19:15:43.050Z,1.25
2023-03-29T19:39:01.218Z,1.55
2023-03-29T19:49:29.567Z,1.40
2023-03-29T19:59:50.544Z,1.20
2023-03-29T20:21:19.299Z,1.25
2023-03-29T20:31:26.256Z,1.40
2023-03-29T20:54:10.997Z,1.40
2023-03-29T21:04:19.890Z,1.48
2023-03-29T21:14:34.492Z,1.42
2023-03-29T21:24:51.246Z,1.27
2023-03-29T21:35:00.189Z,1.27
2023-03-29T21:45:10.777Z,1.70
2023-03-29T21:55:25.135Z,1.30
2023-03-29T22:05:32.647Z,1.60
2023-03-29T22:26:45.817Z,1.60
2023-03-29T22:37:11.335Z,1.70
2023-03-29T22:47:18.465Z,1.73
2023-03-29T22:57:27.069Z,1.30
2023-03-29T23:07:50.778Z,1.52
